PWSweather.com
Personal Weather Stations
Station Observations
PENICUIKWS
PenicuikGB

PenicuikGB

Lat: 55.830932, Lon: -3.224533000000065

Elevation: 166

Station Type: Fine Offset

http://weather.penicuik.org

High Low Average
Temperature 39.0°F3.9°C 34.7°F1.5°C 36.7°F2.6°C
Dew Point 38.0°F3.3°C 32.4°F0.2°C 34.8°F1.6°C
Winds 8.7 mph 14.0 kmh Calm Calm 2.0 mph NE3.2 kmh NE
Wind Gusts 13.0 mph20.9 kmh -- 3.0 mph4.8 kmh
Humidity 96% 90% 93%
Pressure 29.68 in1005.1 mb 29.19 in988.5 mb -
Precipitation 0.14 in3.6 mm - -
Hour Temp Dew Point Humidity Winds Wind Gusts Pressure Precip Precip Rate Daily Precip Total
12:00 AM 36.1°F2.3°C 33.8°F1.0°C 91% 0.2 mph WNW0.3 kmh WNW 0.7 mph1.1 kmh 29.20 in988.8 mb 0.00 in0.0 mm 0.00 in0.0 mm 0.00 in0.0 mm
12:15 AM 36.1°F2.3°C 33.8°F1.0°C 91% 0.5 mph S0.8 kmh S 1.6 mph2.6 kmh 29.20 in988.8 mb 0.01 in0.3 mm 0.04 in1.0 mm 0.01 in0.3 mm
12:30 AM 36.1°F2.3°C 33.8°F1.0°C 91% 0.4 mph S0.6 kmh S 1.6 mph2.6 kmh 29.20 in988.8 mb 0.01 in0.3 mm 0.00 in0.0 mm 0.01 in0.3 mm
12:45 AM 36.0°F2.2°C 33.3°F0.7°C 90% 0.2 mph WNW0.3 kmh WNW 0.7 mph1.1 kmh 29.19 in988.5 mb 0.01 in0.3 mm 0.00 in0.0 mm 0.01 in0.3 mm
01:00 AM 35.8°F2.1°C 33.1°F0.6°C 90% 0.4 mph W0.6 kmh W 1.6 mph2.6 kmh 29.20 in988.8 mb 0.02 in0.5 mm 0.01 in0.3 mm 0.02 in0.5 mm
01:30 AM 35.6°F2.0°C 33.0°F0.6°C 90% 0.2 mph NW0.3 kmh NW 0.7 mph1.1 kmh 29.20 in988.8 mb 0.02 in0.5 mm 0.00 in0.0 mm 0.04 in1.0 mm
01:45 AM 35.6°F2.0°C 33.0°F0.6°C 90% 0.7 mph SE1.1 kmh SE 2.2 mph3.5 kmh 29.20 in988.8 mb 0.02 in0.5 mm 0.00 in0.0 mm 0.04 in1.0 mm
02:00 AM 35.6°F2.0°C 33.0°F0.6°C 90% 0.3 mph SSE0.5 kmh SSE 0.7 mph1.1 kmh 29.21 in989.2 mb 0.01 in0.3 mm 0.00 in0.0 mm 0.04 in1.0 mm
02:15 AM 35.8°F2.1°C 33.1°F0.6°C 90% 0.1 mph SE0.2 kmh SE 0.7 mph1.1 kmh 29.20 in988.8 mb 0.01 in0.3 mm 0.00 in0.0 mm 0.04 in1.0 mm
02:30 AM 35.6°F2.0°C 33.0°F0.6°C 90% Calm Calm -- 29.21 in989.2 mb 0.00 in0.0 mm 0.00 in0.0 mm 0.04 in1.0 mm
02:45 AM 35.6°F2.0°C 33.0°F0.6°C 90% Calm Calm -- 29.21 in989.2 mb 0.00 in0.0 mm 0.00 in0.0 mm 0.04 in1.0 mm
03:00 AM 35.4°F1.9°C 33.1°F0.6°C 91% Calm Calm -- 29.20 in988.8 mb 0.00 in0.0 mm 0.00 in0.0 mm 0.04 in1.0 mm
03:15 AM 35.6°F2.0°C 33.0°F0.6°C 90% Calm Calm -- 29.20 in988.8 mb 0.00 in0.0 mm 0.00 in0.0 mm 0.04 in1.0 mm
03:30 AM 35.4°F1.9°C 33.1°F0.6°C 91% Calm Calm -- 29.20 in988.8 mb 0.00 in0.0 mm 0.00 in0.0 mm 0.04 in1.0 mm
04:15 AM 34.9°F1.6°C 32.5°F0.3°C 91% Calm Calm -- 29.20 in988.8 mb 0.00 in0.0 mm 0.00 in0.0 mm 0.04 in1.0 mm
04:30 AM 34.9°F1.6°C 32.5°F0.3°C 91% 0.2 mph N0.3 kmh N 0.7 mph1.1 kmh 29.20 in988.8 mb 0.00 in0.0 mm 0.00 in0.0 mm 0.04 in1.0 mm
04:45 AM 34.7°F1.5°C 32.4°F0.2°C 91% Calm Calm -- 29.19 in988.5 mb 0.00 in0.0 mm 0.00 in0.0 mm 0.04 in1.0 mm
05:00 AM 34.7°F1.5°C 32.4°F0.2°C 91% Calm Calm -- 29.20 in988.8 mb 0.00 in0.0 mm 0.00 in0.0 mm 0.04 in1.0 mm
05:15 AM 34.7°F1.5°C 32.4°F0.2°C 91% Calm Calm -- 29.20 in988.8 mb 0.00 in0.0 mm 0.00 in0.0 mm 0.04 in1.0 mm
05:30 AM 34.7°F1.5°C 32.4°F0.2°C 91% Calm Calm -- 29.20 in988.8 mb 0.00 in0.0 mm 0.00 in0.0 mm 0.04 in1.0 mm
05:45 AM 35.1°F1.7°C 32.7°F0.4°C 91% Calm Calm -- 29.21 in989.2 mb 0.00 in0.0 mm 0.00 in0.0 mm 0.04 in1.0 mm
06:00 AM 35.1°F1.7°C 32.7°F0.4°C 91% Calm Calm -- 29.21 in989.2 mb 0.00 in0.0 mm 0.00 in0.0 mm 0.04 in1.0 mm
06:15 AM 35.2°F1.8°C 32.9°F0.5°C 91% Calm Calm -- 29.22 in989.5 mb 0.00 in0.0 mm 0.00 in0.0 mm 0.04 in1.0 mm
06:30 AM 35.4°F1.9°C 33.1°F0.6°C 91% Calm Calm -- 29.21 in989.2 mb 0.00 in0.0 mm 0.00 in0.0 mm 0.04 in1.0 mm
06:45 AM 35.4°F1.9°C 33.3°F0.7°C 92% Calm Calm -- 29.21 in989.2 mb 0.00 in0.0 mm 0.00 in0.0 mm 0.04 in1.0 mm
07:00 AM 35.2°F1.8°C 32.9°F0.5°C 91% Calm Calm -- 29.21 in989.2 mb 0.00 in0.0 mm 0.00 in0.0 mm 0.04 in1.0 mm
07:30 AM 35.2°F1.8°C 32.9°F0.5°C 91% Calm Calm -- 29.22 in989.5 mb 0.00 in0.0 mm 0.00 in0.0 mm 0.04 in1.0 mm
07:45 AM 35.2°F1.8°C 32.9°F0.5°C 91% 0.2 mph S0.3 kmh S 1.6 mph2.6 kmh 29.23 in989.8 mb 0.00 in0.0 mm 0.00 in0.0 mm 0.04 in1.0 mm
08:00 AM 35.2°F1.8°C 32.9°F0.5°C 91% Calm Calm -- 29.23 in989.8 mb 0.00 in0.0 mm 0.00 in0.0 mm 0.04 in1.0 mm
08:15 AM 35.2°F1.8°C 33.2°F0.7°C 92% Calm Calm -- 29.24 in990.2 mb 0.00 in0.0 mm 0.00 in0.0 mm 0.04 in1.0 mm
08:30 AM 35.4°F1.9°C 33.3°F0.7°C 92% Calm Calm 0.7 mph1.1 kmh 29.24 in990.2 mb 0.00 in0.0 mm 0.00 in0.0 mm 0.04 in1.0 mm
08:45 AM 35.6°F2.0°C 33.2°F0.7°C 91% Calm Calm -- 29.24 in990.2 mb 0.00 in0.0 mm 0.00 in0.0 mm 0.04 in1.0 mm
09:00 AM 35.6°F2.0°C 33.2°F0.7°C 91% Calm Calm -- 29.25 in990.5 mb 0.00 in0.0 mm 0.00 in0.0 mm 0.04 in1.0 mm
09:15 AM 35.8°F2.1°C 33.4°F0.8°C 91% Calm Calm -- 29.26 in990.9 mb 0.00 in0.0 mm 0.00 in0.0 mm 0.04 in1.0 mm
09:45 AM 36.0°F2.2°C 33.6°F0.9°C 91% 0.3 mph S0.5 kmh S 1.6 mph2.6 kmh 29.27 in991.2 mb 0.00 in0.0 mm 0.00 in0.0 mm 0.04 in1.0 mm
10:00 AM 36.1°F2.3°C 33.8°F1.0°C 91% Calm Calm -- 29.26 in990.9 mb 0.00 in0.0 mm 0.00 in0.0 mm 0.04 in1.0 mm
10:15 AM 36.3°F2.4°C 34.0°F1.1°C 91% Calm Calm -- 29.27 in991.2 mb 0.00 in0.0 mm 0.00 in0.0 mm 0.04 in1.0 mm
10:30 AM 36.5°F2.5°C 34.1°F1.2°C 91% Calm Calm -- 29.27 in991.2 mb 0.01 in0.3 mm 0.04 in1.0 mm 0.05 in1.3 mm
10:45 AM 36.9°F2.7°C 34.5°F1.4°C 91% Calm Calm -- 29.27 in991.2 mb 0.01 in0.3 mm 0.00 in0.0 mm 0.05 in1.3 mm
11:00 AM 37.2°F2.9°C 34.8°F1.6°C 91% 1.5 mph NE2.4 kmh NE 2.2 mph3.5 kmh 29.28 in991.5 mb 0.01 in0.3 mm 0.00 in0.0 mm 0.05 in1.3 mm
11:15 AM 37.4°F3.0°C 36.1°F2.3°C 95% 1.6 mph NNE2.6 kmh NNE 3.1 mph5.0 kmh 29.28 in991.5 mb 0.01 in0.3 mm 0.00 in0.0 mm 0.05 in1.3 mm
11:30 AM 38.1°F3.4°C 37.1°F2.8°C 96% 1.2 mph NNE1.9 kmh NNE 2.2 mph3.5 kmh 29.28 in991.5 mb 0.00 in0.0 mm 0.00 in0.0 mm 0.05 in1.3 mm
11:45 AM 37.9°F3.3°C 36.6°F2.6°C 95% 0.3 mph NNW0.5 kmh NNW 1.6 mph2.6 kmh 29.29 in991.9 mb 0.00 in0.0 mm 0.00 in0.0 mm 0.05 in1.3 mm
12:00 PM 38.3°F3.5°C 37.3°F2.9°C 96% 2.8 mph N4.5 kmh N 4.5 mph7.2 kmh 29.30 in992.2 mb 0.00 in0.0 mm 0.00 in0.0 mm 0.05 in1.3 mm
12:15 PM 38.3°F3.5°C 37.3°F2.9°C 96% 3.1 mph N5.0 kmh N 4.5 mph7.2 kmh 29.30 in992.2 mb 0.00 in0.0 mm 0.00 in0.0 mm 0.05 in1.3 mm
12:45 PM 39.0°F3.9°C 38.0°F3.3°C 96% 1.7 mph N2.7 kmh N 2.2 mph3.5 kmh 29.31 in992.6 mb 0.00 in0.0 mm 0.00 in0.0 mm 0.05 in1.3 mm
01:15 PM 38.5°F3.6°C 37.2°F2.9°C 95% 3.9 mph N6.3 kmh N 5.4 mph8.7 kmh 29.32 in992.9 mb 0.00 in0.0 mm 0.00 in0.0 mm 0.05 in1.3 mm
01:30 PM 37.9°F3.3°C 36.6°F2.6°C 95% 4.2 mph N6.8 kmh N 6.0 mph9.7 kmh 29.32 in992.9 mb 0.00 in0.0 mm 0.00 in0.0 mm 0.05 in1.3 mm
01:45 PM 37.8°F3.2°C 36.5°F2.5°C 95% 3.7 mph N6.0 kmh N 5.4 mph8.7 kmh 29.32 in992.9 mb 0.00 in0.0 mm 0.00 in0.0 mm 0.05 in1.3 mm
02:00 PM 37.8°F3.2°C 36.5°F2.5°C 95% 4.5 mph NNE7.2 kmh NNE 8.3 mph13.4 kmh 29.34 in993.6 mb 0.01 in0.3 mm 0.01 in0.3 mm 0.06 in1.5 mm
02:15 PM 37.9°F3.3°C 36.6°F2.6°C 95% 2.8 mph NNE4.5 kmh NNE 4.5 mph7.2 kmh 29.34 in993.6 mb 0.01 in0.3 mm 0.00 in0.0 mm 0.06 in1.5 mm
02:30 PM 37.9°F3.3°C 36.6°F2.6°C 95% 2.3 mph NNE3.7 kmh NNE 3.1 mph5.0 kmh 29.34 in993.6 mb 0.01 in0.3 mm 0.00 in0.0 mm 0.06 in1.5 mm
02:45 PM 37.9°F3.3°C 36.6°F2.6°C 95% 3.2 mph N5.1 kmh N 5.4 mph8.7 kmh 29.35 in993.9 mb 0.01 in0.3 mm 0.00 in0.0 mm 0.06 in1.5 mm
03:00 PM 37.9°F3.3°C 36.6°F2.6°C 95% 2.1 mph N3.4 kmh N 3.1 mph5.0 kmh 29.36 in994.2 mb 0.00 in0.0 mm 0.00 in0.0 mm 0.06 in1.5 mm
03:15 PM 38.1°F3.4°C 36.8°F2.7°C 95% 2.0 mph N3.2 kmh N 5.4 mph8.7 kmh 29.36 in994.2 mb 0.00 in0.0 mm 0.00 in0.0 mm 0.06 in1.5 mm
03:30 PM 38.1°F3.4°C 36.8°F2.7°C 95% 1.4 mph N2.3 kmh N 3.1 mph5.0 kmh 29.37 in994.6 mb 0.00 in0.0 mm 0.00 in0.0 mm 0.06 in1.5 mm
03:45 PM 37.9°F3.3°C 36.6°F2.6°C 95% 2.6 mph NNE4.2 kmh NNE 3.8 mph6.1 kmh 29.38 in994.9 mb 0.00 in0.0 mm 0.00 in0.0 mm 0.06 in1.5 mm
04:00 PM 38.1°F3.4°C 36.8°F2.7°C 95% 2.2 mph N3.5 kmh N 3.1 mph5.0 kmh 29.38 in994.9 mb 0.00 in0.0 mm 0.00 in0.0 mm 0.06 in1.5 mm
04:30 PM 37.9°F3.3°C 36.6°F2.6°C 95% 2.7 mph NNE4.3 kmh NNE 4.5 mph7.2 kmh 29.40 in995.6 mb 0.00 in0.0 mm 0.00 in0.0 mm 0.06 in1.5 mm
04:45 PM 37.9°F3.3°C 36.6°F2.6°C 95% 2.3 mph NNE3.7 kmh NNE 4.5 mph7.2 kmh 29.40 in995.6 mb 0.00 in0.0 mm 0.00 in0.0 mm 0.06 in1.5 mm
05:00 PM 37.9°F3.3°C 36.6°F2.6°C 95% 2.3 mph NNE3.7 kmh NNE 3.8 mph6.1 kmh 29.40 in995.6 mb 0.00 in0.0 mm 0.00 in0.0 mm 0.06 in1.5 mm
05:15 PM 37.9°F3.3°C 36.6°F2.6°C 95% 2.9 mph N4.7 kmh N 4.5 mph7.2 kmh 29.41 in995.9 mb 0.01 in0.3 mm 0.04 in1.0 mm 0.07 in1.8 mm
05:30 PM 38.1°F3.4°C 36.8°F2.7°C 95% 3.2 mph NNE5.1 kmh NNE 6.0 mph9.7 kmh 29.41 in995.9 mb 0.01 in0.3 mm 0.00 in0.0 mm 0.07 in1.8 mm
05:45 PM 38.1°F3.4°C 36.8°F2.7°C 95% 4.1 mph NNE6.6 kmh NNE 6.0 mph9.7 kmh 29.43 in996.6 mb 0.02 in0.5 mm 0.04 in1.0 mm 0.08 in2.0 mm
06:00 PM 38.1°F3.4°C 36.8°F2.7°C 95% 8.7 mph NNE14.0 kmh NNE 13.0 mph20.9 kmh 29.45 in997.3 mb 0.04 in1.0 mm 0.03 in0.8 mm 0.09 in2.3 mm
06:15 PM 37.6°F3.1°C 36.0°F2.2°C 94% 6.6 mph NE10.6 kmh NE 11.4 mph18.3 kmh 29.46 in997.6 mb 0.04 in1.0 mm 0.00 in0.0 mm 0.11 in2.8 mm
06:30 PM 37.2°F2.9°C 34.6°F1.4°C 90% 3.1 mph N5.0 kmh N 6.9 mph11.1 kmh 29.47 in998.0 mb 0.05 in1.3 mm 0.04 in1.0 mm 0.12 in3.0 mm
06:45 PM 37.4°F3.0°C 35.8°F2.1°C 94% 2.1 mph NNE3.4 kmh NNE 3.8 mph6.1 kmh 29.48 in998.3 mb 0.04 in1.0 mm 0.00 in0.0 mm 0.12 in3.0 mm
07:00 PM 37.6°F3.1°C 36.0°F2.2°C 94% 3.4 mph NNE5.5 kmh NNE 6.0 mph9.7 kmh 29.48 in998.3 mb 0.02 in0.5 mm 0.00 in0.0 mm 0.12 in3.0 mm
07:15 PM 37.6°F3.1°C 36.0°F2.2°C 94% 3.4 mph N5.5 kmh N 5.4 mph8.7 kmh 29.50 in999.0 mb 0.01 in0.3 mm 0.00 in0.0 mm 0.12 in3.0 mm
07:45 PM 37.6°F3.1°C 36.0°F2.2°C 94% 2.1 mph N3.4 kmh N 3.1 mph5.0 kmh 29.52 in999.7 mb 0.02 in0.5 mm 0.02 in0.5 mm 0.14 in3.6 mm
08:00 PM 37.2°F2.9°C 34.6°F1.4°C 90% 0.6 mph NNE1.0 kmh NNE 1.6 mph2.6 kmh 29.52 in999.7 mb 0.02 in0.5 mm 0.00 in0.0 mm 0.14 in3.6 mm
08:15 PM 37.0°F2.8°C 34.4°F1.3°C 90% 0.2 mph N0.3 kmh N 0.7 mph1.1 kmh 29.55 in1000.7 mb 0.02 in0.5 mm 0.00 in0.0 mm 0.14 in3.6 mm
08:30 PM 37.0°F2.8°C 34.4°F1.3°C 90% Calm Calm -- 29.55 in1000.7 mb 0.00 in0.0 mm 0.00 in0.0 mm 0.14 in3.6 mm
08:45 PM 36.7°F2.6°C 34.0°F1.1°C 90% 0.7 mph N1.1 kmh N 2.2 mph3.5 kmh 29.56 in1001.0 mb 0.00 in0.0 mm 0.00 in0.0 mm 0.14 in3.6 mm
09:00 PM 36.7°F2.6°C 34.0°F1.1°C 90% 0.2 mph N0.3 kmh N 0.7 mph1.1 kmh 29.57 in1001.4 mb 0.00 in0.0 mm 0.00 in0.0 mm 0.14 in3.6 mm
09:30 PM 36.9°F2.7°C 34.2°F1.2°C 90% 3.3 mph N5.3 kmh N 5.4 mph8.7 kmh 29.59 in1002.0 mb 0.00 in0.0 mm 0.00 in0.0 mm 0.14 in3.6 mm
09:45 PM 37.8°F3.2°C 36.5°F2.5°C 95% 5.5 mph N8.9 kmh N 9.8 mph15.8 kmh 29.60 in1002.4 mb 0.00 in0.0 mm 0.00 in0.0 mm 0.14 in3.6 mm
10:00 PM 37.6°F3.1°C 36.0°F2.2°C 94% 6.0 mph NNE9.7 kmh NNE 9.2 mph14.8 kmh 29.61 in1002.7 mb 0.00 in0.0 mm 0.00 in0.0 mm 0.14 in3.6 mm
10:15 PM 37.6°F3.1°C 36.0°F2.2°C 94% 5.1 mph N8.2 kmh N 8.3 mph13.4 kmh 29.62 in1003.0 mb 0.00 in0.0 mm 0.00 in0.0 mm 0.14 in3.6 mm
10:30 PM 37.8°F3.2°C 36.2°F2.3°C 94% 4.4 mph NNE7.1 kmh NNE 6.0 mph9.7 kmh 29.63 in1003.4 mb 0.00 in0.0 mm 0.00 in0.0 mm 0.14 in3.6 mm
10:45 PM 37.4°F3.0°C 35.6°F2.0°C 93% 3.9 mph NNE6.3 kmh NNE 6.0 mph9.7 kmh 29.64 in1003.7 mb 0.00 in0.0 mm 0.00 in0.0 mm 0.14 in3.6 mm
11:00 PM 37.4°F3.0°C 35.6°F2.0°C 93% 3.6 mph N5.8 kmh N 8.3 mph13.4 kmh 29.65 in1004.1 mb 0.00 in0.0 mm 0.00 in0.0 mm 0.14 in3.6 mm
11:15 PM 37.4°F3.0°C 35.6°F2.0°C 93% 6.1 mph N9.8 kmh N 8.3 mph13.4 kmh 29.66 in1004.4 mb 0.00 in0.0 mm 0.00 in0.0 mm 0.14 in3.6 mm
11:30 PM 37.6°F3.1°C 35.7°F2.1°C 93% 6.0 mph N9.7 kmh N 9.8 mph15.8 kmh 29.67 in1004.7 mb 0.00 in0.0 mm 0.00 in0.0 mm 0.14 in3.6 mm
11:45 PM 37.8°F3.2°C 35.9°F2.2°C 93% 7.6 mph N12.2 kmh N 10.7 mph17.2 kmh 29.68 in1005.1 mb 0.00 in0.0 mm 0.00 in0.0 mm 0.14 in3.6 mm